Time;durP1;ratioP1;P1;durP2;ratioP2;P2;SDS_P1;SDS_P2;PMS_P1;PMS_P2;Temp;Humidity;BMP_temperature;BMP_pressure;BME280_temperature;BME280_humidity;BME280_pressure;Samples;Min_cycle;Max_cycle;Signal;HPM_P1;HPM_P2
2022/02/26 00:00:56;;;;;;;25.77;13.77;;;;;;;;;;5014342;28;20109;-80
2022/02/26 00:03:22;;;;;;;33.85;18.30;;;;;;;;;;5014312;28;20034;-79
2022/02/26 00:05:49;;;;;;;32.05;14.40;;;;;;;;;;5014046;28;20070;-78
2022/02/26 00:08:17;;;;;;;22.38;12.73;;;;;;;;;;5014475;28;20054;-78
2022/02/26 00:10:45;;;;;;;23.73;14.57;;;;;;;;;;5014076;28;20037;-78
2022/02/26 00:13:11;;;;;;;18.70;11.35;;;;;;;;;;5013854;28;20041;-79
2022/02/26 00:15:38;;;;;;;19.45;9.45;;;;;;;;;;5014391;28;20109;-77
2022/02/26 00:18:04;;;;;;;14.52;8.25;;;;;;;;;;5013684;28;20029;-77
2022/02/26 00:20:30;;;;;;;16.52;9.07;;;;;;;;;;5014089;28;20030;-78
2022/02/26 00:22:56;;;;;;;17.00;7.93;;;;;;;;;;5013882;28;20030;-78
2022/02/26 00:25:22;;;;;;;17.30;9.10;;;;;;;;;;5013849;28;20030;-79
2022/02/26 00:27:48;;;;;;;14.20;8.90;;;;;;;;;;5013966;28;20037;-79
2022/02/26 00:30:14;;;;;;;14.25;9.15;;;;;;;;;;5013724;28;20393;-78
2022/02/26 00:32:40;;;;;;;16.88;9.50;;;;;;;;;;5013892;28;20048;-78
2022/02/26 00:35:07;;;;;;;14.70;10.07;;;;;;;;;;5013641;28;20026;-78
2022/02/26 00:37:33;;;;;;;17.13;10.65;;;;;;;;;;5013799;28;20029;-78
2022/02/26 00:39:59;;;;;;;17.83;12.45;;;;;;;;;;5013649;28;20065;-79
2022/02/26 00:42:25;;;;;;;22.83;15.32;;;;;;;;;;5013752;28;20025;-79
2022/02/26 00:44:51;;;;;;;19.15;11.20;;;;;;;;;;5013530;28;20088;-79
2022/02/26 00:47:17;;;;;;;21.13;13.43;;;;;;;;;;5013494;28;20036;-78
2022/02/26 00:49:46;;;;;;;17.50;10.35;;;;;;;;;;5013551;28;20101;-79
2022/02/26 00:52:13;;;;;;;16.02;8.25;;;;;;;;;;5013179;28;20033;-79
2022/02/26 00:54:39;;;;;;;15.85;8.48;;;;;;;;;;5013762;28;20462;-79
2022/02/26 00:57:05;;;;;;;18.08;8.68;;;;;;;;;;5013367;28;20040;-79
2022/02/26 00:59:31;;;;;;;13.48;8.43;;;;;;;;;;5013346;28;20030;-78
2022/02/26 01:01:57;;;;;;;10.98;7.28;;;;;;;;;;5013313;28;20026;-78
2022/02/26 01:04:23;;;;;;;12.25;7.95;;;;;;;;;;5013351;28;20053;-79
2022/02/26 01:06:50;;;;;;;11.85;7.43;;;;;;;;;;5013259;28;20081;-78
2022/02/26 01:09:16;;;;;;;11.35;7.53;;;;;;;;;;5012999;28;20467;-78
2022/02/26 01:11:42;;;;;;;14.05;7.75;;;;;;;;;;5013147;28;20097;-78
2022/02/26 01:14:08;;;;;;;19.10;10.77;;;;;;;;;;5013105;28;20026;-78
2022/02/26 01:16:35;;;;;;;27.88;16.55;;;;;;;;;;5013181;28;20040;-78
2022/02/26 01:19:01;;;;;;;32.10;18.27;;;;;;;;;;5012945;28;20057;-78
2022/02/26 01:21:27;;;;;;;40.65;21.63;;;;;;;;;;5012979;28;20029;-78
2022/02/26 01:23:53;;;;;;;38.08;21.92;;;;;;;;;;5013033;28;20034;-78
2022/02/26 01:26:20;;;;;;;29.25;16.90;;;;;;;;;;5012878;28;20117;-78
2022/02/26 01:28:46;;;;;;;28.23;15.27;;;;;;;;;;5011698;28;20042;-78
2022/02/26 01:31:12;;;;;;;28.38;16.83;;;;;;;;;;5012680;28;20030;-79
2022/02/26 01:33:39;;;;;;;28.73;17.10;;;;;;;;;;5011735;28;20069;-79
2022/02/26 01:36:05;;;;;;;27.02;14.80;;;;;;;;;;5012895;28;20079;-77
2022/02/26 01:38:32;;;;;;;25.20;13.68;;;;;;;;;;5012682;28;20540;-78
2022/02/26 01:40:58;;;;;;;28.00;15.82;;;;;;;;;;5012921;28;20026;-77
2022/02/26 01:43:24;;;;;;;28.55;17.13;;;;;;;;;;5011260;28;20366;-78
2022/02/26 01:45:51;;;;;;;26.67;15.80;;;;;;;;;;5012780;28;20076;-79
2022/02/26 01:48:17;;;;;;;27.17;14.32;;;;;;;;;;5012594;28;20030;-78
2022/02/26 01:50:43;;;;;;;30.63;16.35;;;;;;;;;;5012835;28;20022;-77
2022/02/26 01:53:10;;;;;;;24.20;14.15;;;;;;;;;;5012685;28;20030;-77
2022/02/26 01:55:37;;;;;;;17.20;12.05;;;;;;;;;;5012575;28;20065;-78
2022/02/26 01:58:03;;;;;;;19.60;11.50;;;;;;;;;;5012558;28;20022;-78
2022/02/26 02:00:30;;;;;;;17.90;11.18;;;;;;;;;;5012416;28;20048;-78
2022/02/26 02:02:57;;;;;;;23.35;13.57;;;;;;;;;;5012349;28;20022;-78
2022/02/26 02:05:26;;;;;;;28.10;18.10;;;;;;;;;;5012240;28;20049;-78
2022/02/26 02:07:52;;;;;;;25.77;15.35;;;;;;;;;;5012575;28;20087;-79
2022/02/26 02:10:19;;;;;;;21.20;13.18;;;;;;;;;;5012270;28;20389;-78
2022/02/26 02:12:45;;;;;;;19.98;12.68;;;;;;;;;;5012393;28;20029;-78
2022/02/26 02:15:11;;;;;;;19.58;12.00;;;;;;;;;;5012412;28;20505;-78
2022/02/26 02:17:37;;;;;;;18.52;11.50;;;;;;;;;;5012297;28;20492;-78
2022/02/26 02:20:03;;;;;;;16.63;10.23;;;;;;;;;;5012278;28;20045;-79
2022/02/26 02:22:30;;;;;;;18.98;10.07;;;;;;;;;;5012175;28;20493;-79
2022/02/26 02:24:56;;;;;;;21.15;12.65;;;;;;;;;;5012427;28;20069;-78
2022/02/26 02:27:22;;;;;;;16.55;10.77;;;;;;;;;;5012029;28;20030;-78
2022/02/26 02:29:48;;;;;;;16.23;10.20;;;;;;;;;;5012358;28;20030;-78
2022/02/26 02:32:14;;;;;;;16.65;10.18;;;;;;;;;;5012407;28;20053;-78
2022/02/26 02:34:40;;;;;;;14.23;9.32;;;;;;;;;;5012087;28;20444;-78
2022/02/26 02:37:10;;;;;;;15.63;10.57;;;;;;;;;;5012417;28;20037;-78
2022/02/26 02:39:36;;;;;;;14.98;8.90;;;;;;;;;;5011902;28;20072;-78
2022/02/26 02:42:03;;;;;;;11.93;7.95;;;;;;;;;;5012258;28;20026;-79
2022/02/26 02:44:29;;;;;;;12.75;7.63;;;;;;;;;;5012082;28;20022;-78
2022/02/26 02:46:55;;;;;;;14.18;7.68;;;;;;;;;;5012124;28;20028;-79
2022/02/26 02:49:21;;;;;;;15.85;9.98;;;;;;;;;;5012101;28;20037;-78
2022/02/26 02:51:47;;;;;;;16.08;9.90;;;;;;;;;;5011964;28;20440;-78
2022/02/26 02:54:13;;;;;;;16.17;8.52;;;;;;;;;;5012077;28;20037;-78
2022/02/26 02:56:39;;;;;;;18.05;10.35;;;;;;;;;;5011897;28;20064;-79
2022/02/26 02:59:05;;;;;;;16.38;9.80;;;;;;;;;;5012083;28;20101;-78
2022/02/26 03:01:31;;;;;;;12.77;7.13;;;;;;;;;;5011794;28;20105;-77
2022/02/26 03:03:58;;;;;;;17.60;10.60;;;;;;;;;;5011935;28;20109;-77
2022/02/26 03:06:25;;;;;;;16.55;10.27;;;;;;;;;;5011706;28;20046;-78
2022/02/26 03:08:51;;;;;;;18.58;12.52;;;;;;;;;;5011835;28;20529;-78
2022/02/26 03:11:19;;;;;;;20.08;12.68;;;;;;;;;;5011997;28;20034;-77
2022/02/26 03:13:45;;;;;;;28.05;16.35;;;;;;;;;;5012195;28;20026;-78
2022/02/26 03:16:12;;;;;;;28.10;16.80;;;;;;;;;;5015346;28;20400;-77
2022/02/26 03:18:38;;;;;;;17.67;10.73;;;;;;;;;;5014926;28;20030;-78
2022/02/26 03:21:05;;;;;;;16.45;9.75;;;;;;;;;;5015283;28;20034;-81
2022/02/26 03:23:31;;;;;;;13.18;7.88;;;;;;;;;;5013742;28;20061;-77
2022/02/26 03:25:57;;;;;;;20.42;9.68;;;;;;;;;;5014786;28;20060;-78
2022/02/26 03:28:23;;;;;;;23.88;13.15;;;;;;;;;;5015078;28;20033;-79
2022/02/26 03:30:49;;;;;;;22.20;10.80;;;;;;;;;;5014700;28;20029;-79
2022/02/26 03:33:16;;;;;;;14.20;9.05;;;;;;;;;;5014928;28;20112;-80
2022/02/26 03:35:42;;;;;;;12.93;9.00;;;;;;;;;;5014676;28;20030;-78
2022/02/26 03:38:09;;;;;;;12.77;8.25;;;;;;;;;;5014901;28;20026;-78
2022/02/26 03:40:35;;;;;;;12.98;8.20;;;;;;;;;;5014684;28;20104;-79
2022/02/26 03:43:01;;;;;;;11.25;7.57;;;;;;;;;;5014724;28;20034;-79
2022/02/26 03:45:27;;;;;;;12.63;7.97;;;;;;;;;;5014710;28;20033;-79
2022/02/26 03:47:54;;;;;;;13.07;7.57;;;;;;;;;;5014540;28;20049;-77
2022/02/26 03:50:20;;;;;;;12.75;8.25;;;;;;;;;;5014782;28;20513;-78
2022/02/26 03:52:46;;;;;;;12.73;7.53;;;;;;;;;;5014326;28;20022;-78
2022/02/26 03:55:13;;;;;;;9.75;6.90;;;;;;;;;;5014694;28;20026;-78
2022/02/26 03:57:39;;;;;;;10.95;6.75;;;;;;;;;;5014535;28;20571;-79
2022/02/26 04:00:09;;;;;;;13.38;6.60;;;;;;;;;;5014478;28;20037;-77
2022/02/26 04:02:37;;;;;;;11.55;7.18;;;;;;;;;;5014569;28;20029;-79
2022/02/26 04:05:05;;;;;;;13.35;7.53;;;;;;;;;;5014105;28;20026;-79
2022/02/26 04:07:31;;;;;;;11.07;7.22;;;;;;;;;;5014506;28;20641;-78
2022/02/26 04:09:57;;;;;;;14.45;9.77;;;;;;;;;;5014275;28;20057;-77
2022/02/26 04:12:23;;;;;;;15.63;9.65;;;;;;;;;;5013832;28;20057;-76
2022/02/26 04:14:49;;;;;;;41.10;24.52;;;;;;;;;;5013244;28;20071;-78
2022/02/26 04:17:16;;;;;;;29.10;18.52;;;;;;;;;;5014154;28;20493;-78
2022/02/26 04:19:42;;;;;;;15.50;9.05;;;;;;;;;;5013912;28;20088;-77
2022/02/26 04:22:08;;;;;;;13.02;8.00;;;;;;;;;;5013982;28;20057;-78
2022/02/26 04:24:34;;;;;;;11.63;7.32;;;;;;;;;;5013550;28;20030;-77
2022/02/26 04:27:01;;;;;;;34.80;19.90;;;;;;;;;;5013781;28;20034;-77
2022/02/26 04:29:27;;;;;;;31.60;19.40;;;;;;;;;;5014102;28;20080;-77
2022/02/26 04:31:53;;;;;;;33.40;15.38;;;;;;;;;;5013637;28;20030;-77
2022/02/26 04:34:19;;;;;;;16.45;10.88;;;;;;;;;;5013889;28;20527;-77
2022/02/26 04:36:45;;;;;;;17.20;11.93;;;;;;;;;;5013853;28;20030;-77
2022/02/26 04:39:12;;;;;;;16.20;11.18;;;;;;;;;;5013667;28;20042;-76
2022/02/26 04:41:38;;;;;;;18.27;11.27;;;;;;;;;;5013595;28;20412;-75
2022/02/26 04:44:04;;;;;;;19.92;11.93;;;;;;;;;;5013366;28;20132;-77
2022/02/26 04:46:30;;;;;;;19.95;13.13;;;;;;;;;;5013637;28;20021;-77
2022/02/26 04:48:56;;;;;;;19.17;12.77;;;;;;;;;;5013520;28;20037;-76
2022/02/26 04:51:22;;;;;;;19.90;10.45;;;;;;;;;;5013511;28;20503;-75
2022/02/26 04:53:48;;;;;;;21.08;12.05;;;;;;;;;;5013267;28;20026;-77
2022/02/26 04:56:14;;;;;;;19.10;11.18;;;;;;;;;;5013321;28;20041;-77
2022/02/26 04:58:41;;;;;;;38.90;16.85;;;;;;;;;;5013122;28;20037;-77
2022/02/26 05:01:07;;;;;;;70.60;30.13;;;;;;;;;;5013234;28;20036;-75
2022/02/26 05:03:33;;;;;;;44.03;21.13;;;;;;;;;;5012997;28;20039;-76
2022/02/26 05:05:59;;;;;;;22.55;13.63;;;;;;;;;;5013032;28;20132;-77
2022/02/26 05:08:25;;;;;;;19.83;11.23;;;;;;;;;;5013084;28;20022;-77
2022/02/26 05:10:52;;;;;;;17.30;10.95;;;;;;;;;;5013100;28;20389;-78
2022/02/26 05:13:19;;;;;;;14.68;9.15;;;;;;;;;;5012995;28;20465;-77
2022/02/26 05:15:45;;;;;;;17.23;9.50;;;;;;;;;;5013137;28;20060;-80
2022/02/26 05:18:11;;;;;;;18.00;9.15;;;;;;;;;;5012833;28;20042;-78
2022/02/26 05:20:37;;;;;;;14.60;8.85;;;;;;;;;;5013025;28;20362;-77
2022/02/26 05:23:04;;;;;;;14.20;8.75;;;;;;;;;;5012894;28;20026;-76
2022/02/26 05:25:30;;;;;;;14.68;8.35;;;;;;;;;;5012896;28;20160;-78
2022/02/26 05:27:56;;;;;;;17.02;9.95;;;;;;;;;;5012288;28;20477;-79
2022/02/26 05:30:22;;;;;;;18.65;11.50;;;;;;;;;;5012687;28;20105;-77
2022/02/26 05:32:48;;;;;;;20.17;12.02;;;;;;;;;;5012674;28;20030;-78
2022/02/26 05:35:14;;;;;;;18.98;12.10;;;;;;;;;;5008380;28;20038;-77
2022/02/26 05:37:40;;;;;;;23.58;15.52;;;;;;;;;;4992314;28;20393;-77
2022/02/26 05:40:07;;;;;;;21.98;15.40;;;;;;;;;;4993038;28;20042;-77
2022/02/26 05:42:33;;;;;;;27.17;18.30;;;;;;;;;;4992849;28;20133;-78
2022/02/26 05:45:00;;;;;;;24.85;15.75;;;;;;;;;;4997098;28;20056;-78
2022/02/26 05:47:26;;;;;;;20.10;13.52;;;;;;;;;;5010564;28;20485;-77
2022/02/26 05:49:52;;;;;;;20.13;12.85;;;;;;;;;;5005320;28;20076;-76
2022/02/26 05:52:18;;;;;;;36.70;25.85;;;;;;;;;;4997646;28;20030;-76
2022/02/26 05:54:44;;;;;;;48.33;27.40;;;;;;;;;;4998899;28;20038;-76
2022/02/26 05:57:10;;;;;;;25.92;18.55;;;;;;;;;;5012570;28;20033;-76
2022/02/26 05:59:36;;;;;;;27.35;17.30;;;;;;;;;;5012142;28;20041;-76
2022/02/26 06:02:03;;;;;;;29.70;20.17;;;;;;;;;;5010737;28;20025;-77
2022/02/26 06:04:29;;;;;;;33.95;21.75;;;;;;;;;;4994539;28;20409;-77
2022/02/26 06:06:55;;;;;;;32.00;21.00;;;;;;;;;;4996055;28;20066;-78
2022/02/26 06:09:21;;;;;;;43.70;26.13;;;;;;;;;;4996142;28;20042;-76
2022/02/26 06:11:47;;;;;;;47.28;27.67;;;;;;;;;;5004389;28;20034;-76
2022/02/26 06:14:13;;;;;;;47.88;27.98;;;;;;;;;;5012384;28;20084;-77
2022/02/26 06:16:39;;;;;;;49.85;29.75;;;;;;;;;;5011835;28;20433;-76
2022/02/26 06:19:05;;;;;;;52.53;33.42;;;;;;;;;;5012140;28;20037;-76
2022/02/26 06:21:31;;;;;;;47.38;31.67;;;;;;;;;;5011721;28;20033;-77
2022/02/26 06:23:57;;;;;;;48.03;28.88;;;;;;;;;;5012302;28;20536;-77
2022/02/26 06:26:23;;;;;;;52.25;33.40;;;;;;;;;;5012041;28;20030;-77
2022/02/26 06:28:50;;;;;;;58.80;37.45;;;;;;;;;;5012027;28;20375;-78
2022/02/26 06:31:16;;;;;;;58.40;38.63;;;;;;;;;;5012214;28;20087;-77
2022/02/26 06:33:42;;;;;;;73.55;55.75;;;;;;;;;;5010747;28;20121;-77
2022/02/26 06:36:09;;;;;;;65.57;44.38;;;;;;;;;;5011773;28;20036;-78
2022/02/26 06:38:35;;;;;;;70.88;46.72;;;;;;;;;;5010636;28;20083;-78
2022/02/26 06:41:01;;;;;;;67.82;47.13;;;;;;;;;;5011836;28;20109;-77
2022/02/26 06:43:27;;;;;;;62.33;44.95;;;;;;;;;;5012362;28;20101;-78
2022/02/26 06:45:53;;;;;;;51.67;34.45;;;;;;;;;;5012013;28;20041;-77
2022/02/26 06:48:19;;;;;;;62.92;39.28;;;;;;;;;;5013841;28;20488;-79
2022/02/26 06:50:45;;;;;;;51.63;33.03;;;;;;;;;;5015830;28;20500;-78
2022/02/26 06:53:11;;;;;;;41.35;26.85;;;;;;;;;;5015909;28;20034;-78
2022/02/26 06:55:37;;;;;;;29.05;17.90;;;;;;;;;;5014867;28;20041;-78
2022/02/26 06:58:04;;;;;;;26.23;17.20;;;;;;;;;;5015443;28;20183;-78
2022/02/26 07:00:31;;;;;;;31.33;20.60;;;;;;;;;;5014424;28;20084;-77
2022/02/26 07:02:57;;;;;;;28.48;18.17;;;;;;;;;;5015058;28;20049;-79
2022/02/26 07:05:24;;;;;;;28.63;17.80;;;;;;;;;;5015443;28;20141;-79
2022/02/26 07:07:50;;;;;;;27.63;16.67;;;;;;;;;;5012413;28;20507;-78
2022/02/26 07:10:16;;;;;;;24.88;16.63;;;;;;;;;;5015018;28;20022;-77
2022/02/26 07:12:42;;;;;;;27.10;17.63;;;;;;;;;;5017383;28;20030;-79
2022/02/26 07:15:08;;;;;;;23.65;16.70;;;;;;;;;;5014703;28;20080;-78
2022/02/26 07:17:35;;;;;;;22.40;15.43;;;;;;;;;;5013265;28;20065;-79
2022/02/26 07:20:01;;;;;;;26.67;17.35;;;;;;;;;;5014698;28;20116;-78
2022/02/26 07:22:29;;;;;;;26.98;17.90;;;;;;;;;;5014478;28;20022;-78
2022/02/26 07:24:55;;;;;;;27.83;18.95;;;;;;;;;;5014631;28;20030;-79
2022/02/26 07:27:21;;;;;;;33.72;23.38;;;;;;;;;;5014407;28;20029;-79
2022/02/26 07:29:47;;;;;;;46.97;31.05;;;;;;;;;;5014292;28;20037;-78
2022/02/26 07:32:13;;;;;;;50.80;34.40;;;;;;;;;;5014147;28;20018;-78
2022/02/26 07:34:39;;;;;;;45.70;31.63;;;;;;;;;;5014051;28;20018;-78
2022/02/26 07:37:05;;;;;;;56.53;38.58;;;;;;;;;;5014477;28;20077;-77
2022/02/26 07:39:32;;;;;;;52.00;36.67;;;;;;;;;;5014912;28;20038;-78
2022/02/26 07:41:58;;;;;;;39.05;27.55;;;;;;;;;;5011288;28;20026;-80
2022/02/26 07:44:24;;;;;;;41.58;24.85;;;;;;;;;;5014333;28;20069;-79
2022/02/26 07:46:50;;;;;;;21.35;16.67;;;;;;;;;;5013109;28;20026;-79
2022/02/26 07:49:16;;;;;;;22.33;16.73;;;;;;;;;;5014367;28;20044;-79
2022/02/26 07:51:42;;;;;;;22.10;14.63;;;;;;;;;;5013516;28;20037;-79
2022/02/26 07:54:09;;;;;;;24.05;16.95;;;;;;;;;;5014059;28;20045;-80
2022/02/26 07:56:35;;;;;;;22.08;14.40;;;;;;;;;;5013193;28;20129;-80
2022/02/26 07:59:01;;;;;;;21.63;14.80;;;;;;;;;;5012972;28;20068;-79
2022/02/26 08:01:27;;;;;;;23.08;15.73;;;;;;;;;;5013342;28;20029;-79
2022/02/26 08:03:53;;;;;;;23.33;15.73;;;;;;;;;;5013694;28;20030;-79
2022/02/26 08:06:20;;;;;;;22.27;15.18;;;;;;;;;;5013835;28;20057;-79
2022/02/26 08:08:47;;;;;;;23.40;15.45;;;;;;;;;;5013521;28;20057;-79
2022/02/26 08:11:13;;;;;;;26.00;16.38;;;;;;;;;;5013500;28;20077;-80
2022/02/26 08:13:39;;;;;;;21.13;14.68;;;;;;;;;;5014442;28;20033;-79
2022/02/26 08:16:08;;;;;;;21.98;14.02;;;;;;;;;;5013279;28;20034;-79
2022/02/26 08:18:34;;;;;;;25.00;16.05;;;;;;;;;;5013563;28;20096;-79
2022/02/26 08:21:00;;;;;;;24.65;16.35;;;;;;;;;;5012141;28;20054;-79
2022/02/26 08:23:27;;;;;;;19.98;13.80;;;;;;;;;;5013298;28;20776;-79
2022/02/26 08:25:53;;;;;;;18.65;13.88;;;;;;;;;;5011625;28;20483;-78
2022/02/26 08:28:19;;;;;;;18.38;12.80;;;;;;;;;;5013953;28;20030;-79
2022/02/26 08:30:45;;;;;;;27.95;17.55;;;;;;;;;;5013514;28;20032;-80
2022/02/26 08:33:11;;;;;;;21.77;15.70;;;;;;;;;;5013449;28;20022;-80
2022/02/26 08:35:37;;;;;;;21.75;14.02;;;;;;;;;;5012634;28;20494;-79
2022/02/26 08:38:04;;;;;;;17.98;13.85;;;;;;;;;;5013309;28;20036;-79
2022/02/26 08:40:30;;;;;;;18.80;13.02;;;;;;;;;;5018370;28;20034;-80
2022/02/26 08:42:56;;;;;;;17.65;12.45;;;;;;;;;;5020650;28;20034;-79
2022/02/26 08:45:22;;;;;;;21.73;12.05;;;;;;;;;;5013259;28;20034;-79
2022/02/26 08:47:49;;;;;;;20.90;14.13;;;;;;;;;;5013317;28;20062;-79
2022/02/26 08:50:19;;;;;;;18.13;12.77;;;;;;;;;;5013344;28;20026;-78
2022/02/26 08:52:46;;;;;;;20.17;13.27;;;;;;;;;;5012998;28;20034;-78
2022/02/26 08:55:12;;;;;;;17.50;11.70;;;;;;;;;;5013094;28;20033;-79
2022/02/26 08:57:38;;;;;;;23.60;14.88;;;;;;;;;;5012770;28;20033;-77
2022/02/26 09:00:06;;;;;;;20.05;12.85;;;;;;;;;;5012975;28;20069;-78
2022/02/26 09:02:32;;;;;;;16.88;11.80;;;;;;;;;;5012621;28;20026;-78
2022/02/26 09:04:58;;;;;;;15.20;11.07;;;;;;;;;;5012395;28;20100;-77
2022/02/26 09:07:25;;;;;;;17.63;11.88;;;;;;;;;;5012485;28;20445;-78
2022/02/26 09:09:51;;;;;;;17.58;11.77;;;;;;;;;;5012837;28;20385;-79
2022/02/26 09:12:18;;;;;;;15.68;10.95;;;;;;;;;;5012730;28;20034;-78
2022/02/26 09:14:44;;;;;;;17.85;11.98;;;;;;;;;;5011612;28;20033;-79
2022/02/26 09:17:11;;;;;;;12.07;9.35;;;;;;;;;;5012173;28;20119;-81
2022/02/26 09:19:38;;;;;;;14.27;10.10;;;;;;;;;;5012021;28;20042;-80
2022/02/26 09:22:04;;;;;;;16.70;11.85;;;;;;;;;;5012602;28;20021;-79
2022/02/26 09:24:31;;;;;;;12.05;8.60;;;;;;;;;;5010503;28;20089;-78
2022/02/26 09:26:58;;;;;;;14.20;9.93;;;;;;;;;;5012301;28;20022;-79
2022/02/26 09:29:24;;;;;;;14.00;9.52;;;;;;;;;;5012373;28;20034;-79
2022/02/26 09:31:51;;;;;;;14.65;10.70;;;;;;;;;;5012093;28;20037;-79
2022/02/26 09:34:21;;;;;;;10.30;7.57;;;;;;;;;;5012189;28;20026;-79
2022/02/26 09:36:47;;;;;;;12.95;9.30;;;;;;;;;;5011433;28;20109;-80
2022/02/26 09:42:07;;;;;;;14.52;9.93;;;;;;;;;;5011861;28;20532;-79
2022/02/26 09:44:34;;;;;;;9.77;7.60;;;;;;;;;;5009593;28;20060;-80
2022/02/26 09:47:00;;;;;;;9.93;7.50;;;;;;;;;;5012525;28;20109;-80
2022/02/26 09:49:26;;;;;;;9.63;7.28;;;;;;;;;;5012422;28;20018;-80
2022/02/26 09:51:54;;;;;;;10.00;6.80;;;;;;;;;;5012032;28;20133;-77
2022/02/26 09:54:20;;;;;;;11.73;7.43;;;;;;;;;;5012225;28;20076;-81
2022/02/26 09:56:46;;;;;;;10.73;7.43;;;;;;;;;;5010750;28;20434;-80
2022/02/26 09:59:13;;;;;;;11.15;8.32;;;;;;;;;;5012166;28;20049;-80
2022/02/26 10:02:00;;;;;;;11.90;8.00;;;;;;;;;;5011746;28;20022;-78
2022/02/26 10:04:26;;;;;;;11.70;7.63;;;;;;;;;;5010374;28;20487;-80
2022/02/26 10:07:07;;;;;;;10.32;7.65;;;;;;;;;;5011470;28;20064;-80
2022/02/26 10:09:37;;;;;;;13.77;8.57;;;;;;;;;;5010882;28;20026;-82
2022/02/26 10:12:03;;;;;;;25.27;15.18;;;;;;;;;;5011311;28;20030;-80
2022/02/26 10:14:35;;;;;;;15.68;9.55;;;;;;;;;;5010474;28;20029;-80
2022/02/26 10:17:01;;;;;;;11.13;8.55;;;;;;;;;;5010158;28;20117;-81
2022/02/26 10:19:34;;;;;;;11.50;7.97;;;;;;;;;;5011918;28;20100;-79
2022/02/26 10:22:01;;;;;;;11.48;8.77;;;;;;;;;;5012756;28;20087;-80
2022/02/26 10:24:28;;;;;;;10.73;6.95;;;;;;;;;;5015732;28;20029;-81
2022/02/26 10:26:56;;;;;;;13.60;8.23;;;;;;;;;;5016737;28;20034;-81
2022/02/26 10:29:23;;;;;;;10.68;7.32;;;;;;;;;;5015862;28;20037;-79
2022/02/26 10:31:53;;;;;;;12.23;6.95;;;;;;;;;;5015456;28;20148;-80
2022/02/26 10:34:38;;;;;;;11.32;8.40;;;;;;;;;;5016060;28;21328;-79
2022/02/26 10:37:07;;;;;;;14.38;8.57;;;;;;;;;;5013217;28;20026;-79
2022/02/26 10:39:34;;;;;;;11.38;7.28;;;;;;;;;;5015293;28;20033;-80
2022/02/26 10:42:01;;;;;;;16.95;11.35;;;;;;;;;;5015712;28;20214;-80
2022/02/26 10:44:27;;;;;;;14.95;7.43;;;;;;;;;;5015677;28;20032;-80
2022/02/26 10:47:04;;;;;;;10.82;6.95;;;;;;;;;;5015515;28;20048;-79
2022/02/26 10:49:31;;;;;;;10.85;7.38;;;;;;;;;;5013481;28;20080;-80
2022/02/26 10:52:05;;;;;;;10.48;6.55;;;;;;;;;;5015380;28;20038;-80
2022/02/26 10:54:31;;;;;;;10.23;6.47;;;;;;;;;;5012806;28;20029;-80
2022/02/26 10:57:15;;;;;;;9.50;6.65;;;;;;;;;;5015810;28;20033;-79
2022/02/26 10:59:43;;;;;;;8.75;6.13;;;;;;;;;;5014410;28;20496;-79
2022/02/26 11:02:11;;;;;;;8.35;6.50;;;;;;;;;;5012576;28;20021;-80
2022/02/26 11:04:37;;;;;;;11.85;7.30;;;;;;;;;;5014716;28;20432;-80
2022/02/26 11:07:05;;;;;;;12.70;8.57;;;;;;;;;;5015303;28;20125;-79
2022/02/26 11:09:31;;;;;;;13.23;8.38;;;;;;;;;;5014581;28;20100;-79
2022/02/26 11:11:58;;;;;;;12.38;7.88;;;;;;;;;;5015190;28;20030;-80
2022/02/26 11:14:25;;;;;;;9.13;6.30;;;;;;;;;;5014154;28;20018;-80
2022/02/26 11:16:53;;;;;;;10.23;7.25;;;;;;;;;;5014950;28;20034;-81
2022/02/26 11:19:20;;;;;;;8.95;5.93;;;;;;;;;;5014747;28;20512;-80
2022/02/26 11:21:50;;;;;;;9.55;7.38;;;;;;;;;;5014085;28;20481;-81
2022/02/26 11:24:17;;;;;;;11.55;7.22;;;;;;;;;;5014717;28;20538;-80
2022/02/26 11:26:43;;;;;;;10.30;7.15;;;;;;;;;;5014862;28;20084;-80
2022/02/26 11:29:10;;;;;;;11.23;7.25;;;;;;;;;;5014853;28;20041;-80
2022/02/26 11:31:57;;;;;;;10.23;6.63;;;;;;;;;;5014618;28;20029;-81
2022/02/26 11:34:25;;;;;;;12.68;6.90;;;;;;;;;;5011783;28;20030;-81
2022/02/26 11:36:53;;;;;;;10.38;6.68;;;;;;;;;;5014543;28;20026;-81
2022/02/26 11:39:38;;;;;;;7.88;6.20;;;;;;;;;;5012254;28;20034;-80
2022/02/26 11:42:16;;;;;;;10.13;6.50;;;;;;;;;;5011244;28;20026;-80
2022/02/26 11:44:43;;;;;;;10.65;8.00;;;;;;;;;;5011473;28;20033;-78
2022/02/26 11:47:17;;;;;;;11.25;7.30;;;;;;;;;;5014054;28;20053;-78
2022/02/26 11:50:01;;;;;;;9.68;6.55;;;;;;;;;;5012575;28;20041;-78
2022/02/26 11:52:39;;;;;;;11.07;7.05;;;;;;;;;;5012903;28;20018;-78
2022/02/26 11:55:24;;;;;;;10.32;6.55;;;;;;;;;;5019145;28;20470;-78
2022/02/26 11:57:50;;;;;;;;;;;;;;;;;;5015483;28;20477;-78
2022/02/26 12:00:18;;;;;;;9.20;5.32;;;;;;;;;;5014155;28;19925;-79
2022/02/26 12:02:44;;;;;;;8.15;5.72;;;;;;;;;;5013852;28;20062;-78
2022/02/26 12:05:11;;;;;;;12.18;6.80;;;;;;;;;;5011366;28;20084;-78
2022/02/26 12:07:41;;;;;;;12.25;6.95;;;;;;;;;;5013856;28;20109;-78
2022/02/26 12:10:26;;;;;;;9.15;7.05;;;;;;;;;;5013970;28;20025;-81
2022/02/26 12:12:53;;;;;;;9.93;6.72;;;;;;;;;;5020827;28;20492;-79
2022/02/26 12:15:21;;;;;;;11.10;6.63;;;;;;;;;;5022867;28;20060;-79
2022/02/26 12:18:12;;;;;;;10.43;6.90;;;;;;;;;;5025455;28;20021;-79
2022/02/26 12:20:39;;;;;;;9.63;6.53;;;;;;;;;;5018041;28;20041;-79
2022/02/26 12:23:08;;;;;;;9.45;5.78;;;;;;;;;;5018763;28;20477;-78
2022/02/26 12:25:44;;;;;;;9.45;5.38;;;;;;;;;;5017935;28;20039;-79
2022/02/26 12:28:11;;;;;;;8.32;5.10;;;;;;;;;;5021659;28;20038;-77
2022/02/26 12:30:56;;;;;;;7.88;5.45;;;;;;;;;;5022400;28;20053;-78
2022/02/26 12:33:22;;;;;;;;;;;;;;;;;;5024753;28;20029;-77
2022/02/26 12:35:48;;;;;;;9.30;6.82;;;;;;;;;;5031584;28;19991;-78
2022/02/26 12:38:21;;;;;;;10.80;6.70;;;;;;;;;;5023477;28;20499;-79
2022/02/26 12:40:47;;;;;;;10.80;7.22;;;;;;;;;;5012628;28;20068;-79
2022/02/26 12:43:15;;;;;;;15.27;10.40;;;;;;;;;;5014057;28;20029;-80
2022/02/26 12:45:43;;;;;;;11.82;5.72;;;;;;;;;;5012449;28;20385;-79
2022/02/26 12:48:11;;;;;;;7.47;4.22;;;;;;;;;;5013286;28;20026;-79
2022/02/26 12:50:38;;;;;;;7.20;4.57;;;;;;;;;;5013680;28;20022;-79
2022/02/26 12:53:04;;;;;;;13.43;4.65;;;;;;;;;;5013687;28;20034;-77
2022/02/26 12:55:31;;;;;;;7.72;4.72;;;;;;;;;;5013505;28;20101;-80
2022/02/26 12:57:58;;;;;;;8.38;5.03;;;;;;;;;;5013723;28;20424;-79
2022/02/26 13:00:26;;;;;;;6.80;4.63;;;;;;;;;;5013692;28;20109;-80
2022/02/26 13:02:55;;;;;;;8.75;5.40;;;;;;;;;;5013476;28;20029;-79
2022/02/26 13:05:29;;;;;;;6.60;4.70;;;;;;;;;;5013365;28;20124;-80
2022/02/26 13:08:03;;;;;;;17.35;6.13;;;;;;;;;;5013614;28;20105;-81
2022/02/26 13:10:37;;;;;;;7.72;5.05;;;;;;;;;;5012350;28;20029;-81
2022/02/26 13:13:04;;;;;;;12.55;4.93;;;;;;;;;;5013784;28;20038;-79
2022/02/26 13:15:30;;;;;;;10.50;6.18;;;;;;;;;;5012165;28;20030;-79
2022/02/26 13:17:59;;;;;;;11.20;4.18;;;;;;;;;;5013504;28;20033;-79
2022/02/26 13:20:26;;;;;;;6.20;3.42;;;;;;;;;;5011884;28;20428;-80
2022/02/26 13:22:55;;;;;;;12.85;4.07;;;;;;;;;;5013350;28;20112;-80
2022/02/26 13:25:22;;;;;;;6.45;3.78;;;;;;;;;;5012951;28;20033;-79
2022/02/26 13:27:49;;;;;;;6.78;3.63;;;;;;;;;;5011951;28;20417;-80
2022/02/26 13:30:15;;;;;;;5.28;3.13;;;;;;;;;;5012975;28;20026;-80
2022/02/26 13:32:44;;;;;;;6.72;2.80;;;;;;;;;;5013066;28;20026;-80
2022/02/26 13:35:11;;;;;;;6.57;2.78;;;;;;;;;;5013023;28;20355;-79
2022/02/26 13:37:37;;;;;;;5.18;2.90;;;;;;;;;;5013002;28;20113;-79
2022/02/26 13:40:06;;;;;;;6.35;2.97;;;;;;;;;;5013057;28;20087;-79
2022/02/26 13:42:33;;;;;;;6.82;3.50;;;;;;;;;;5012898;28;20113;-79
2022/02/26 13:44:59;;;;;;;7.70;3.47;;;;;;;;;;5011634;28;20026;-80
2022/02/26 13:47:25;;;;;;;5.68;2.83;;;;;;;;;;5012819;28;20433;-80
2022/02/26 13:49:54;;;;;;;6.50;3.75;;;;;;;;;;5012903;28;20057;-79
2022/02/26 13:52:20;;;;;;;14.27;5.07;;;;;;;;;;5012597;28;20041;-78
2022/02/26 13:54:48;;;;;;;9.95;3.65;;;;;;;;;;5012747;28;20108;-77
2022/02/26 13:57:16;;;;;;;6.85;3.75;;;;;;;;;;5011679;28;20077;-78
2022/02/26 13:59:43;;;;;;;13.50;6.68;;;;;;;;;;5006442;28;20140;-78
2022/02/26 14:02:19;;;;;;;8.02;3.70;;;;;;;;;;5011713;28;20440;-77
2022/02/26 14:04:45;;;;;;;6.20;3.72;;;;;;;;;;5009663;28;20103;-78
2022/02/26 14:07:11;;;;;;;5.07;3.78;;;;;;;;;;5012183;28;20085;-80
2022/02/26 14:09:42;;;;;;;6.78;3.83;;;;;;;;;;5011338;28;20037;-80
2022/02/26 14:12:09;;;;;;;6.35;4.43;;;;;;;;;;5010224;28;20037;-79
2022/02/26 14:14:35;;;;;;;8.45;4.20;;;;;;;;;;5012370;28;20045;-79
2022/02/26 14:17:03;;;;;;;11.63;6.05;;;;;;;;;;5012516;28;20041;-79
2022/02/26 14:19:32;;;;;;;6.18;4.25;;;;;;;;;;5012482;28;20111;-79
2022/02/26 14:21:59;;;;;;;7.25;4.15;;;;;;;;;;5012373;28;20448;-78
2022/02/26 14:24:26;;;;;;;7.53;3.75;;;;;;;;;;5012500;28;20026;-78
2022/02/26 14:26:56;;;;;;;8.20;4.60;;;;;;;;;;5012396;28;20033;-77
2022/02/26 14:29:41;;;;;;;7.07;4.15;;;;;;;;;;5012324;28;20041;-79